Time;durP1;ratioP1;P1;durP2;ratioP2;P2;SDS_P1;SDS_P2;PMS_P1;PMS_P2;Temp;Humidity;BMP_temperature;BMP_pressure;BME280_temperature;BME280_humidity;BME280_pressure;Samples;Min_cycle;Max_cycle;Signal;HPM_P1;HPM_P2
2022/04/29 00:01:59;;;;;;;3.07;2.70;;;16.80;93.20;;;17.15;46.11;102411.38;4943300;28;98742;-62
2022/04/29 00:04:26;;;;;;;4.70;3.50;;;16.70;93.30;;;17.14;46.04;102417.63;4920158;28;98088;-63
2022/04/29 00:06:57;;;;;;;4.63;3.70;;;16.70;93.70;;;17.14;46.04;102413.19;4919132;28;96732;-63
2022/04/29 00:09:23;;;;;;;3.10;2.80;;;16.70;93.40;;;17.14;46.20;102417.63;4930064;28;97302;-62
2022/04/29 00:11:50;;;;;;;3.80;2.97;;;16.70;93.60;;;17.14;46.30;102422.97;4939974;28;98569;-62
2022/04/29 00:14:16;;;;;;;4.50;3.10;;;16.70;93.60;;;17.13;46.40;102427.44;4921005;28;98249;-63
2022/04/29 00:16:42;;;;;;;7.77;6.07;;;16.70;93.50;;;17.11;46.45;102423.09;4938928;28;98913;-63
2022/04/29 00:19:08;;;;;;;3.63;3.03;;;16.60;93.20;;;17.08;46.18;102418.75;4920644;28;104855;-61
2022/04/29 00:21:34;;;;;;;3.73;3.10;;;16.60;93.60;;;17.04;46.58;102418.88;4960612;28;100096;-63
2022/04/29 00:24:00;;;;;;;8.60;6.20;;;16.50;93.90;;;17.01;46.62;102421.66;4946017;28;98494;-62
2022/04/29 00:26:26;;;;;;;9.93;7.33;;;16.50;93.70;;;16.95;46.60;102420.97;4941861;28;98809;-61
2022/04/29 00:28:51;;;;;;;3.67;2.90;;;16.40;94.10;;;16.97;46.78;102425.38;4947684;28;97020;-63
2022/04/29 00:31:17;;;;;;;5.07;3.77;;;16.40;94.30;;;16.94;46.69;102421.88;4942351;28;97945;-62
2022/04/29 00:33:43;;;;;;;4.77;3.77;;;16.40;93.90;;;16.94;46.73;102424.56;4932441;28;97937;-63
2022/04/29 00:36:09;;;;;;;6.07;4.47;;;16.40;94.10;;;16.96;46.78;102424.50;4922701;28;98410;-63
2022/04/29 00:38:35;;;;;;;10.37;7.97;;;16.50;94.10;;;16.94;46.60;102427.22;4935024;28;98162;-62
2022/04/29 00:41:01;;;;;;;5.97;3.73;;;16.40;93.60;;;16.91;46.66;102421.97;4930001;28;101886;-63
2022/04/29 00:43:27;;;;;;;3.20;2.80;;;16.40;93.80;;;16.90;46.94;102430.00;4938517;28;98021;-61
2022/04/29 00:45:53;;;;;;;3.07;2.77;;;16.40;94.20;;;16.91;46.52;102432.63;4933352;28;98140;-61
2022/04/29 00:48:19;;;;;;;3.30;3.00;;;16.40;94.20;;;16.94;46.71;102419.22;4910673;28;110785;-61
2022/04/29 00:50:45;;;;;;;2.90;2.70;;;16.50;94.00;;;16.97;46.65;102420.03;4933521;28;99406;-63
2022/04/29 00:53:12;;;;;;;6.23;4.47;;;16.60;93.80;;;16.98;46.67;102411.09;4931202;28;96848;-62
2022/04/29 00:55:44;;;;;;;7.70;6.60;;;16.60;93.50;;;16.99;46.49;102404.84;4923759;28;98414;-62
2022/04/29 00:58:16;;;;;;;3.30;3.00;;;16.60;93.60;;;16.99;46.65;102397.72;4937044;28;98769;-63
2022/04/29 01:00:43;;;;;;;4.03;3.00;;;16.60;94.00;;;17.00;46.59;102393.25;4941807;28;98473;-63
2022/04/29 01:03:13;;;;;;;5.57;4.13;;;16.60;93.70;;;17.01;46.55;102400.34;4908509;28;97864;-67
2022/04/29 01:05:40;;;;;;;3.13;2.83;;;16.60;93.30;;;17.02;46.57;102394.06;4910014;28;97601;-62
2022/04/29 01:08:07;;;;;;;3.83;2.83;;;16.60;93.80;;;17.02;46.32;102384.28;4941300;28;96983;-66
2022/04/29 01:10:33;;;;;;;5.63;4.13;;;16.60;93.90;;;17.06;46.25;102388.56;4943368;28;98516;-61
2022/04/29 01:13:03;;;;;;;4.17;3.63;;;16.70;93.30;;;17.07;46.29;102386.78;4931545;28;114925;-63
2022/04/29 01:15:30;;;;;;;3.77;3.30;;;16.70;93.50;;;17.06;46.42;102382.38;4937000;28;97319;-63
2022/04/29 01:18:00;;;;;;;5.53;4.77;;;16.70;93.30;;;17.03;46.33;102371.81;4931436;28;97172;-63
2022/04/29 01:20:30;;;;;;;3.33;3.03;;;16.60;93.30;;;17.02;46.28;102372.75;4937454;28;101027;-63
2022/04/29 01:22:56;;;;;;;6.27;5.67;;;16.60;93.80;;;17.01;46.29;102379.00;4941559;28;96999;-63
2022/04/29 01:25:23;;;;;;;3.97;2.77;;;16.60;93.40;;;16.99;46.29;102376.41;4935200;28;96941;-63
2022/04/29 01:27:49;;;;;;;4.57;3.47;;;16.50;93.80;;;16.95;46.42;102367.66;4935207;28;97302;-62
2022/04/29 01:30:16;;;;;;;6.47;3.97;;;16.50;93.60;;;16.92;46.51;102365.09;4933235;28;97465;-63
2022/04/29 01:32:42;;;;;;;4.67;3.73;;;16.40;93.70;;;16.90;46.59;102374.03;4946051;28;97170;-63
2022/04/29 01:35:11;;;;;;;5.73;3.90;;;16.30;93.90;;;16.87;46.54;102361.69;4931095;28;97649;-63
2022/04/29 01:37:38;;;;;;;5.10;4.13;;;16.30;94.00;;;16.84;46.61;102366.28;4933750;28;97094;-62
2022/04/29 01:40:07;;;;;;;10.63;8.20;;;16.30;93.90;;;16.79;46.75;102363.78;4949227;28;96791;-63
2022/04/29 01:42:33;;;;;;;3.63;3.33;;;16.20;94.00;;;16.77;46.87;102364.72;4936191;28;104591;-63
2022/04/29 01:44:59;;;;;;;5.03;3.47;;;16.20;94.30;;;16.73;47.09;102363.97;4943900;28;97553;-61
2022/04/29 01:47:25;;;;;;;5.40;4.13;;;16.10;94.40;;;16.72;47.14;102361.34;4927913;28;111476;-63
2022/04/29 01:49:52;;;;;;;4.73;4.33;;;16.10;94.20;;;16.70;47.30;102369.41;4939740;28;98034;-63
2022/04/29 01:52:18;;;;;;;12.10;10.33;;;16.10;94.50;;;16.69;47.25;102357.00;4950066;28;97326;-63
2022/04/29 01:54:44;;;;;;;15.03;11.10;;;16.10;94.40;;;16.63;47.20;102351.84;4950776;28;97201;-61
2022/04/29 01:57:10;;;;;;;11.73;8.50;;;16.00;94.80;;;16.55;47.51;102352.13;4933080;28;97737;-63
2022/04/29 01:59:36;;;;;;;7.77;6.53;;;15.90;94.90;;;16.47;47.65;102354.16;4954581;28;97247;-63
2022/04/29 02:02:03;;;;;;;4.37;3.97;;;15.70;95.10;;;16.42;47.92;102352.56;4936669;28;97744;-63
2022/04/29 02:04:29;;;;;;;4.90;3.70;;;15.70;95.40;;;16.42;48.02;102352.56;4935975;28;97338;-63
2022/04/29 02:06:55;;;;;;;4.30;3.90;;;15.70;95.70;;;16.44;47.84;102350.72;4934739;28;97261;-63
2022/04/29 02:09:21;;;;;;;4.97;3.47;;;15.80;95.20;;;16.45;48.18;102352.47;4937997;28;96928;-63
2022/04/29 02:12:05;;;;;;;4.87;3.90;;;15.80;95.30;;;16.47;47.78;102351.50;4946659;28;97203;-62
2022/04/29 02:14:40;;;;;;;6.60;4.43;;;15.80;95.20;;;16.49;47.85;102355.00;4959842;28;97100;-63
2022/04/29 02:17:08;;;;;;;4.97;4.47;;;15.90;95.20;;;16.50;48.08;102347.88;4955837;28;97103;-69
2022/04/29 02:19:36;;;;;;;3.70;3.30;;;15.90;95.20;;;16.53;47.72;102350.44;4957811;28;102497;-62
2022/04/29 02:22:05;;;;;;;6.90;4.93;;;15.90;95.40;;;16.54;47.60;102342.38;4952621;28;97177;-62
2022/04/29 02:24:34;;;;;;;5.33;4.80;;;16.00;95.10;;;16.56;47.50;102339.66;4956905;28;96555;-63
2022/04/29 02:27:02;;;;;;;9.00;6.80;;;16.00;95.00;;;16.54;47.65;102338.84;4955766;28;97334;-63
2022/04/29 02:29:28;;;;;;;6.37;5.73;;;15.90;95.00;;;16.52;47.79;102338.03;4957492;28;98010;-63
2022/04/29 02:31:55;;;;;;;8.90;7.60;;;15.90;95.40;;;16.52;47.94;102333.59;4952559;28;97049;-62
2022/04/29 02:34:21;;;;;;;8.57;5.77;;;15.90;95.30;;;16.51;47.67;102334.50;4936185;28;99090;-63
2022/04/29 02:36:47;;;;;;;4.40;4.00;;;15.90;95.30;;;16.52;47.90;102332.72;4949514;28;97017;-63
2022/04/29 02:39:14;;;;;;;4.77;4.27;;;15.90;95.20;;;16.52;47.88;102330.06;4938581;28;96997;-62
2022/04/29 02:41:40;;;;;;;7.97;5.57;;;15.90;95.30;;;16.51;47.92;102331.84;4950768;28;97313;-63
2022/04/29 02:44:06;;;;;;;10.33;7.70;;;15.90;95.20;;;16.50;47.70;102329.25;4934112;28;97153;-67
2022/04/29 02:46:32;;;;;;;6.63;5.17;;;15.80;95.00;;;16.48;47.88;102328.38;4941975;28;97404;-63
2022/04/29 02:48:58;;;;;;;15.10;9.97;;;15.80;95.40;;;16.46;47.80;102332.91;4942686;28;96776;-62
2022/04/29 02:51:24;;;;;;;17.37;10.90;;;15.80;95.20;;;16.38;47.67;102329.66;4935502;28;97066;-63
2022/04/29 02:53:51;;;;;;;9.80;7.77;;;15.70;95.60;;;16.32;48.33;102331.56;4968281;28;96925;-63
2022/04/29 02:56:18;;;;;;;10.17;8.30;;;15.60;96.00;;;16.31;48.15;102337.81;4959722;28;96764;-62
2022/04/29 02:58:44;;;;;;;16.93;12.53;;;15.60;95.30;;;16.26;47.94;102337.09;4952311;28;97315;-62
2022/04/29 03:01:10;;;;;;;5.50;4.90;;;15.50;95.70;;;16.25;48.38;102332.72;4944539;28;97000;-63
2022/04/29 03:03:36;;;;;;;7.50;5.67;;;15.50;96.10;;;16.21;48.44;102328.41;4943504;28;107421;-63
2022/04/29 03:06:02;;;;;;;4.23;3.83;;;15.50;95.50;;;16.21;48.39;102339.06;4950099;28;97463;-63
2022/04/29 03:08:28;;;;;;;4.03;3.40;;;15.50;96.20;;;16.22;48.66;102335.47;4949124;28;97507;-62
2022/04/29 03:10:54;;;;;;;5.90;5.00;;;15.50;96.20;;;16.26;48.36;102334.44;4941187;28;97031;-62
2022/04/29 03:13:19;;;;;;;3.67;3.33;;;15.60;95.60;;;16.30;48.14;102330.75;4935002;28;100721;-63
2022/04/29 03:15:47;;;;;;;5.30;4.40;;;15.70;95.80;;;16.34;48.26;102334.19;4939332;28;97560;-62
2022/04/29 03:18:18;;;;;;;6.10;5.47;;;15.80;95.70;;;16.38;48.07;102330.50;4911772;28;98737;-63
2022/04/29 03:20:47;;;;;;;6.77;5.00;;;15.80;95.30;;;16.36;47.96;102329.69;4945661;28;97093;-63
2022/04/29 03:23:13;;;;;;;12.70;9.10;;;15.80;95.20;;;16.35;47.94;102326.16;4933849;28;96954;-62
2022/04/29 03:25:42;;;;;;;10.07;8.13;;;15.70;95.20;;;16.35;48.15;102325.28;4940368;28;96901;-62
2022/04/29 03:28:09;;;;;;;14.50;11.00;;;15.70;95.40;;;16.23;47.68;102326.56;4928912;28;97239;-63
2022/04/29 03:30:36;;;;;;;11.70;9.60;;;15.60;95.60;;;16.18;48.30;102316.97;4952428;28;103653;-63
2022/04/29 03:33:05;;;;;;;8.20;7.27;;;15.40;96.30;;;16.13;48.70;102317.13;4958188;28;96941;-62
2022/04/29 03:35:31;;;;;;;5.07;4.57;;;15.40;96.30;;;16.11;48.95;102318.97;4946776;28;97089;-63
2022/04/29 03:37:57;;;;;;;7.00;5.73;;;15.40;96.60;;;16.13;48.83;102310.94;4953757;28;99067;-63
2022/04/29 03:40:26;;;;;;;11.23;8.73;;;15.40;96.30;;;16.13;48.53;102314.47;4967997;28;116921;-63
2022/04/29 03:42:56;;;;;;;5.07;3.83;;;15.40;95.70;;;16.11;48.70;102321.63;4931414;28;114074;-63
2022/04/29 03:45:24;;;;;;;10.93;7.23;;;15.40;96.30;;;16.14;48.87;102321.53;4947989;28;97145;-63
2022/04/29 03:47:51;;;;;;;6.03;5.37;;;15.40;96.10;;;16.15;48.71;102315.28;4946866;28;97767;-62
2022/04/29 03:50:17;;;;;;;8.23;7.03;;;15.50;96.20;;;16.17;48.61;102313.44;4961092;28;98543;-62
2022/04/29 03:52:51;;;;;;;12.13;8.97;;;15.50;96.00;;;16.20;48.48;102321.34;4955983;28;97080;-61
2022/04/29 03:55:23;;;;;;;9.73;6.83;;;15.50;96.00;;;16.15;48.69;102306.44;4934026;28;97120;-63
2022/04/29 03:57:49;;;;;;;17.90;12.33;;;15.50;95.70;;;16.04;48.19;102304.09;4937726;28;97721;-63
2022/04/29 04:00:16;;;;;;;9.77;8.43;;;15.30;96.20;;;15.97;49.33;102310.56;4946212;28;97975;-62
2022/04/29 04:02:42;;;;;;;13.33;10.93;;;15.20;96.70;;;15.91;49.16;102305.41;4942214;28;97626;-63
2022/04/29 04:05:09;;;;;;;11.27;7.10;;;15.10;96.90;;;15.85;49.14;102302.97;4968125;28;97906;-62
2022/04/29 04:07:36;;;;;;;5.60;4.60;;;15.00;96.80;;;15.86;49.32;102310.03;4951791;28;98072;-63
2022/04/29 04:10:03;;;;;;;5.03;4.20;;;15.10;97.30;;;15.91;49.56;102302.75;4967026;28;96761;-63
2022/04/29 04:12:46;;;;;;;4.17;3.77;;;15.20;97.00;;;15.95;49.12;102304.44;4953685;28;96988;-63
2022/04/29 04:15:13;;;;;;;5.43;4.27;;;15.20;96.80;;;15.95;49.24;102309.75;4956888;28;97057;-63
2022/04/29 04:17:40;;;;;;;10.93;8.63;;;15.30;96.70;;;15.97;48.85;102313.22;4954539;28;96993;-62
2022/04/29 04:20:08;;;;;;;8.47;7.53;;;15.30;96.40;;;16.02;49.10;102308.63;4969404;28;98270;-69
2022/04/29 04:22:35;;;;;;;7.10;5.47;;;15.30;96.50;;;16.05;49.06;102306.72;4954429;28;96967;-62
2022/04/29 04:25:06;;;;;;;7.00;5.53;;;15.40;96.50;;;16.10;48.99;102314.56;4959994;28;102497;-63
2022/04/29 04:27:32;;;;;;;14.60;11.20;;;15.40;96.30;;;16.09;48.75;102323.47;4934485;28;100452;-62
2022/04/29 04:29:59;;;;;;;17.97;13.10;;;15.40;96.30;;;16.16;48.92;102318.81;4940344;28;96983;-63
2022/04/29 04:32:31;;;;;;;10.33;7.97;;;15.60;96.50;;;16.24;48.61;102322.13;4936936;28;97235;-63
2022/04/29 04:35:00;;;;;;;7.10;5.73;;;15.70;96.10;;;16.28;48.48;102321.94;4946982;28;97027;-62
2022/04/29 04:37:27;;;;;;;7.13;5.67;;;15.70;95.50;;;16.27;48.41;102314.88;4930506;28;98860;-61
2022/04/29 04:39:58;;;;;;;5.73;4.50;;;15.70;95.90;;;16.27;48.36;102325.53;4941519;28;97194;-63
2022/04/29 04:42:24;;;;;;;6.63;4.60;;;15.60;95.90;;;16.26;48.54;102323.78;4936423;28;97465;-62
2022/04/29 04:44:53;;;;;;;5.10;4.60;;;15.60;95.70;;;16.25;48.53;102330.03;4955552;28;96971;-62
2022/04/29 04:47:20;;;;;;;9.53;6.17;;;15.60;96.10;;;16.25;48.58;102330.03;4946269;28;97373;-63
2022/04/29 04:49:45;;;;;;;5.07;4.57;;;15.60;96.00;;;16.25;48.40;102322.06;4942004;28;97146;-63
2022/04/29 04:52:11;;;;;;;6.53;5.47;;;15.60;96.00;;;16.24;48.63;102322.13;4939059;28;96529;-63
2022/04/29 04:54:37;;;;;;;10.73;7.80;;;15.60;96.00;;;16.21;48.24;102328.41;4956112;28;96732;-62
2022/04/29 04:57:04;;;;;;;6.23;5.30;;;15.50;95.80;;;16.19;48.47;102324.91;4965330;28;97373;-63
2022/04/29 04:59:30;;;;;;;4.70;4.20;;;15.50;96.00;;;16.17;48.81;102326.75;4948056;28;101262;-62
2022/04/29 05:01:56;;;;;;;4.60;4.20;;;15.50;96.80;;;16.18;48.62;102325.81;4932456;28;96878;-63
2022/04/29 05:04:22;;;;;;;4.90;4.43;;;15.50;96.80;;;16.17;48.66;102321.44;4934990;28;96884;-63
2022/04/29 05:06:48;;;;;;;5.27;4.47;;;15.50;96.20;;;16.14;48.64;102326.84;4941407;28;97318;-63
2022/04/29 05:09:14;;;;;;;6.67;5.97;;;15.50;96.60;;;16.15;48.54;102317.94;4949773;28;96976;-63
2022/04/29 05:11:40;;;;;;;5.57;4.97;;;15.40;96.50;;;16.14;48.74;102318.00;4942152;28;110323;-63
2022/04/29 05:14:06;;;;;;;8.67;6.93;;;15.40;96.50;;;16.15;48.73;102317.94;4941147;28;97119;-67
2022/04/29 05:16:32;;;;;;;13.27;10.43;;;15.50;96.50;;;16.16;48.74;102314.34;4932438;28;101637;-61
2022/04/29 05:18:58;;;;;;;8.67;6.03;;;15.50;96.60;;;16.16;48.65;102314.34;4955822;28;101141;-63
2022/04/29 05:21:24;;;;;;;10.97;6.07;;;15.50;96.50;;;16.16;48.77;102319.69;4946400;28;97161;-63
2022/04/29 05:23:50;;;;;;;7.97;6.97;;;15.50;96.30;;;16.16;48.97;102324.13;4949893;28;96947;-63
2022/04/29 05:26:16;;;;;;;7.37;5.90;;;15.50;96.30;;;16.15;48.68;102323.28;4945541;28;113134;-63
2022/04/29 05:28:42;;;;;;;14.70;10.40;;;15.50;96.40;;;16.13;48.59;102325.13;4964875;28;97361;-63
2022/04/29 05:31:07;;;;;;;13.70;11.63;;;15.40;96.20;;;16.14;48.66;102321.53;4963350;28;97114;-62
2022/04/29 05:33:34;;;;;;;11.80;9.80;;;15.40;96.40;;;16.17;48.69;102325.88;4965479;28;110709;-63
2022/04/29 05:36:00;;;;;;;15.80;11.17;;;15.50;96.40;;;16.19;48.38;102319.56;4986634;28;98799;-62
2022/04/29 05:43:57;;;;;;;9.90;7.93;;;15.70;96.10;;;16.28;48.51;102329.06;4949053;28;96981;-63
2022/04/29 05:46:23;;;;;;;11.67;8.37;;;15.70;96.00;;;16.28;48.43;102329.06;4940658;28;97756;-61
2022/04/29 05:48:48;;;;;;;12.70;10.20;;;15.70;96.00;;;16.29;48.54;102329.00;4951319;28;115596;-62
2022/04/29 05:51:16;;;;;;;18.30;12.10;;;15.70;96.40;;;16.23;48.15;102331.91;4934104;28;104805;-63
2022/04/29 05:53:43;;;;;;;19.47;11.50;;;15.60;96.00;;;16.20;48.18;102342.66;4951333;28;101537;-63
2022/04/29 05:56:08;;;;;;;16.27;11.73;;;15.50;96.10;;;16.23;48.40;102342.53;4939549;28;121137;-63
2022/04/29 05:58:34;;;;;;;9.63;6.93;;;15.60;96.50;;;16.24;48.37;102328.31;4943779;28;97158;-63
2022/04/29 06:01:01;;;;;;;14.13;9.47;;;15.70;96.00;;;16.21;48.47;102328.41;4946026;28;97061;-63
2022/04/29 06:03:27;;;;;;;5.10;4.60;;;15.60;96.50;;;16.21;48.45;102328.41;4948572;28;97364;-63
2022/04/29 06:05:53;;;;;;;5.40;4.60;;;15.60;96.50;;;16.23;48.39;102321.25;4960125;28;97215;-61
2022/04/29 06:08:18;;;;;;;13.97;10.03;;;15.60;96.40;;;16.25;48.32;102322.06;4957525;28;96998;-62
2022/04/29 06:10:44;;;;;;;14.30;11.20;;;15.70;95.90;;;16.12;48.35;102319.84;4954924;28;117768;-63
2022/04/29 06:13:10;;;;;;;6.00;5.20;;;15.50;95.70;;;16.12;48.64;102319.84;4940815;28;97340;-63
2022/04/29 06:15:36;;;;;;;7.03;6.00;;;15.50;96.80;;;16.15;48.49;102317.94;4941354;28;96855;-62
2022/04/29 06:18:03;;;;;;;12.00;8.07;;;15.50;96.70;;;16.18;48.62;102320.50;4954083;28;97362;-62
2022/04/29 06:20:29;;;;;;;14.70;11.70;;;15.60;96.40;;;16.24;48.42;102316.78;4972199;28;97481;-62
2022/04/29 06:22:55;;;;;;;10.10;8.30;;;15.70;96.00;;;16.29;48.10;102315.69;4959878;28;97396;-63
2022/04/29 06:25:22;;;;;;;6.63;5.93;;;15.80;96.50;;;16.28;48.50;102319.28;4955111;28;96764;-63
2022/04/29 06:27:49;;;;;;;15.60;12.13;;;15.80;96.70;;;16.33;48.04;102319.13;4959401;28;97102;-64
2022/04/29 06:30:15;;;;;;;17.57;11.97;;;15.80;95.90;;;16.39;48.22;102312.75;4956210;28;96785;-62
2022/04/29 06:32:40;;;;;;;8.77;7.00;;;15.90;96.00;;;16.46;47.80;102324.91;4952457;28;97315;-63
2022/04/29 06:35:08;;;;;;;15.23;11.17;;;16.00;95.50;;;16.53;47.83;102323.78;4956397;28;126902;-64
2022/04/29 06:37:35;;;;;;;5.00;4.40;;;16.10;95.40;;;16.62;47.60;102334.13;4943962;28;102218;-63
2022/04/29 06:40:01;;;;;;;13.70;8.47;;;16.30;95.50;;;16.69;47.54;102332.16;4955876;28;102789;-63
2022/04/29 06:42:27;;;;;;;19.03;12.33;;;16.40;95.00;;;16.71;47.02;102332.97;4937348;28;97024;-63
2022/04/29 06:44:53;;;;;;;9.07;7.37;;;16.40;94.60;;;16.72;47.28;102335.59;4943389;28;109103;-61
2022/04/29 06:47:19;;;;;;;18.10;12.77;;;16.40;94.80;;;16.75;46.88;102335.47;4930167;28;98277;-63
2022/04/29 06:49:45;;;;;;;16.80;11.17;;;16.40;94.50;;;16.77;47.09;102341.63;4941834;28;106101;-63
2022/04/29 06:52:11;;;;;;;12.47;10.17;;;16.40;94.70;;;16.80;47.11;102341.53;4935247;28;97652;-63
2022/04/29 06:54:37;;;;;;;17.00;10.67;;;16.40;94.30;;;16.84;47.12;102351.16;4936977;28;97492;-63
2022/04/29 06:57:04;;;;;;;15.07;12.77;;;16.50;94.90;;;16.88;46.78;102344.78;4937189;28;97893;-64
2022/04/29 06:59:29;;;;;;;16.80;12.73;;;16.50;94.80;;;16.94;46.71;102346.38;4937609;28;97200;-63
2022/04/29 07:01:55;;;;;;;19.53;14.03;;;16.60;94.60;;;16.99;46.83;102348.88;4941856;28;104012;-63
2022/04/29 07:04:25;;;;;;;21.17;14.40;;;16.70;94.40;;;16.99;46.54;102343.53;4952770;28;96942;-63
2022/04/29 07:06:54;;;;;;;14.53;10.77;;;16.70;94.60;;;17.00;46.80;102345.28;4940471;28;96762;-63
2022/04/29 07:09:20;;;;;;;16.07;11.13;;;16.60;94.70;;;17.03;46.54;102347.81;4939199;28;97455;-63
2022/04/29 07:11:45;;;;;;;15.37;13.13;;;16.70;94.60;;;17.10;46.51;102352.91;4938271;28;98283;-63
2022/04/29 07:14:12;;;;;;;19.17;12.60;;;16.90;94.20;;;17.22;45.94;102356.91;4944096;28;127622;-62
2022/04/29 07:16:38;;;;;;;14.80;9.70;;;17.10;93.90;;;17.31;45.78;102353.91;4956332;28;98628;-63
2022/04/29 07:19:03;;;;;;;12.20;9.97;;;17.30;93.60;;;17.41;45.79;102357.97;4954579;28;105017;-62
2022/04/29 07:21:29;;;;;;;4.83;4.13;;;17.40;93.20;;;17.46;45.34;102355.97;4956221;28;97223;-63
2022/04/29 07:23:55;;;;;;;11.10;8.00;;;17.50;93.00;;;17.45;45.59;102348.91;4955161;28;111025;-63
2022/04/29 07:26:21;;;;;;;14.13;12.60;;;17.40;93.20;;;17.44;45.69;102343.63;4952199;28;99143;-63
2022/04/29 07:28:47;;;;;;;19.27;13.70;;;17.30;93.60;;;17.45;45.68;102348.91;4936062;28;103520;-62
2022/04/29 07:31:12;;;;;;;19.80;14.27;;;17.40;93.70;;;17.48;45.49;102343.47;4932550;28;97316;-63
2022/04/29 07:33:38;;;;;;;20.43;13.47;;;17.40;93.20;;;17.50;45.67;102346.97;4939583;28;113298;-63
2022/04/29 07:41:45;;;;;;;4.70;3.80;;;17.40;92.70;;;17.55;45.63;102338.78;4958359;28;97143;-63
2022/04/29 07:44:12;;;;;;;11.87;9.33;;;17.40;93.30;;;17.62;45.32;102328.72;4971452;28;101071;-63
2022/04/29 07:46:39;;;;;;;7.73;5.33;;;17.50;92.90;;;17.61;45.20;102332.31;4958177;28;97793;-63
2022/04/29 07:49:06;;;;;;;7.97;5.80;;;17.50;93.30;;;17.60;45.37;102327.91;4959665;28;97338;-63
2022/04/29 07:51:32;;;;;;;11.87;10.63;;;17.50;93.60;;;17.61;45.21;102329.66;4957542;28;99290;-63
2022/04/29 07:53:58;;;;;;;9.97;7.83;;;17.50;93.30;;;17.62;45.44;102329.59;4957866;28;97737;-63
2022/04/29 07:56:24;;;;;;;14.20;12.43;;;17.50;93.20;;;17.63;45.17;102330.44;4947778;28;107106;-63
2022/04/29 07:58:49;;;;;;;18.17;14.30;;;17.60;92.80;;;17.65;45.27;102339.25;4958176;28;97008;-63
2022/04/29 08:01:16;;;;;;;4.50;4.10;;;17.60;92.40;;;17.65;45.37;102332.16;4958777;28;97336;-63
2022/04/29 08:03:42;;;;;;;4.50;3.90;;;17.60;93.10;;;17.71;45.07;102329.28;4953201;28;97611;-63
2022/04/29 08:06:09;;;;;;;17.20;12.60;;;17.70;92.70;;;17.72;44.86;102330.16;4943067;28;96933;-63
2022/04/29 08:08:35;;;;;;;22.37;14.67;;;17.70;92.40;;;17.69;44.88;102330.28;4937178;28;96856;-63
2022/04/29 08:11:01;;;;;;;19.77;15.07;;;17.60;92.70;;;17.58;45.20;102335.09;4938635;28;97247;-61
2022/04/29 08:13:28;;;;;;;21.27;13.93;;;17.50;92.80;;;17.66;45.01;102335.69;4935864;28;97154;-61
2022/04/29 08:15:54;;;;;;;17.63;12.97;;;17.60;92.80;;;17.62;45.57;102334.06;4940129;28;97127;-61
2022/04/29 08:18:20;;;;;;;7.57;5.93;;;17.50;93.60;;;17.57;45.58;102330.69;4937600;28;96957;-61
2022/04/29 08:20:47;;;;;;;21.77;14.97;;;17.40;94.40;;;17.59;44.91;102328.84;4941595;28;98613;-61
2022/04/29 08:23:12;;;;;;;15.83;11.80;;;17.50;92.80;;;17.39;46.01;102333.16;4936905;28;97504;-61
2022/04/29 08:25:38;;;;;;;21.87;15.47;;;17.20;94.00;;;17.43;45.55;102339.22;4941053;28;99445;-62
2022/04/29 08:28:05;;;;;;;17.10;13.03;;;17.20;93.60;;;17.48;45.61;102338.13;4934335;28;112869;-59
2022/04/29 08:30:31;;;;;;;12.90;10.97;;;17.30;93.30;;;17.51;45.35;102335.34;4934263;28;97019;-61
2022/04/29 08:32:59;;;;;;;21.67;15.63;;;17.50;93.00;;;17.52;45.72;102337.09;4941957;28;97478;-62
2022/04/29 08:35:27;;;;;;;8.60;7.00;;;17.50;93.50;;;17.61;45.18;102326.97;4935099;28;98885;-61
2022/04/29 08:37:58;;;;;;;16.63;12.97;;;17.60;93.00;;;17.62;45.41;102334.06;4936813;28;97190;-61
2022/04/29 08:40:25;;;;;;;21.73;14.67;;;17.60;93.00;;;17.68;45.07;102329.41;4942974;28;97185;-59
2022/04/29 08:42:51;;;;;;;18.30;12.60;;;17.70;92.70;;;17.74;45.07;102330.94;4948307;28;98914;-60
2022/04/29 08:45:18;;;;;;;18.07;15.50;;;17.70;92.60;;;17.78;45.02;102321.88;4934344;28;99474;-61
2022/04/29 08:47:46;;;;;;;20.53;15.27;;;17.80;92.30;;;17.80;45.01;102317.38;4940025;28;97377;-60
2022/04/29 08:50:19;;;;;;;10.07;8.50;;;17.80;92.30;;;17.82;44.98;102320.84;4931888;28;97151;-60
2022/04/29 08:52:46;;;;;;;19.03;14.03;;;17.90;92.30;;;17.87;44.89;102324.19;4938158;28;97436;-61
2022/04/29 09:00:43;;;;;;;10.60;7.10;;;17.90;92.10;;;17.96;44.53;102326.50;4955040;28;97126;-61
2022/04/29 09:03:17;;;;;;;17.63;12.23;;;18.00;92.10;;;18.00;44.40;102328.13;4948859;28;97913;-62
2022/04/29 09:05:45;;;;;;;20.83;14.33;;;18.10;92.00;;;18.02;44.31;102328.91;4954000;28;98243;-62
2022/04/29 09:08:20;;;;;;;16.37;12.53;;;18.10;91.90;;;18.05;44.47;102328.78;4938214;28;97056;-61
2022/04/29 09:10:58;;;;;;;20.77;15.90;;;18.10;91.90;;;18.04;44.39;102327.06;4956481;28;101092;-60
2022/04/29 09:13:31;;;;;;;24.37;17.10;;;18.10;91.90;;;17.94;45.07;102325.72;4932997;28;97072;-60
2022/04/29 09:16:05;;;;;;;21.10;17.93;;;17.90;92.50;;;17.78;45.26;102320.09;4959842;28;103653;-60
2022/04/29 09:18:39;;;;;;;11.27;6.77;;;17.70;93.10;;;17.77;45.04;102322.81;4956672;28;97156;-59
2022/04/29 09:21:18;;;;;;;18.63;15.43;;;17.60;92.90;;;17.79;45.13;102320.94;4962317;28;96942;-60
2022/04/29 09:23:55;;;;;;;20.67;15.37;;;17.70;92.70;;;17.78;45.02;102319.22;4958325;28;101847;-60
2022/04/29 09:26:27;;;;;;;24.00;16.73;;;17.80;92.50;;;17.82;45.04;102324.38;4962252;28;97203;-60
2022/04/29 09:29:21;;;;;;;22.43;16.30;;;17.90;92.30;;;17.82;44.98;102320.84;4977420;28;97057;-60
2022/04/29 09:31:56;;;;;;;23.03;17.97;;;17.90;92.20;;;17.78;44.94;102325.41;4960205;28;96927;-60
2022/04/29 09:34:43;;;;;;;23.00;16.57;;;17.90;92.10;;;17.83;45.16;102327.94;4965045;28;97717;-60
2022/04/29 09:37:27;;;;;;;15.17;13.47;;;17.90;92.20;;;17.83;44.59;102322.59;4953818;28;97063;-61
2022/04/29 09:40:03;;;;;;;18.13;16.23;;;17.90;91.80;;;17.78;45.01;102316.53;4962196;28;96894;-60
2022/04/29 09:42:40;;;;;;;24.57;19.03;;;17.90;92.10;;;17.87;44.66;102318.84;4951822;28;96688;-59
2022/04/29 09:45:18;;;;;;;22.77;18.47;;;18.00;92.00;;;17.91;44.66;102320.47;4964566;28;98426;-60
2022/04/29 09:47:44;;;;;;;16.30;14.47;;;18.00;92.30;;;17.87;44.84;102313.53;4948172;28;99880;-59
2022/04/29 09:50:11;;;;;;;7.10;5.73;;;17.90;92.30;;;17.93;45.00;102317.72;4953921;28;97297;-62
2022/04/29 09:52:43;;;;;;;25.03;19.67;;;18.00;92.10;;;17.92;44.70;102314.19;4973094;28;96820;-58
2022/04/29 09:55:19;;;;;;;11.00;9.90;;;18.00;92.20;;;17.97;44.88;102314.91;4928909;28;98963;-65
2022/04/29 09:57:49;;;;;;;24.97;18.93;;;18.00;92.20;;;17.97;44.71;102309.56;4951362;28;101265;-58
2022/04/29 10:00:16;;;;;;;20.07;17.80;;;18.00;91.90;;;17.96;44.86;102301.63;4903489;28;97151;-62
2022/04/29 10:02:42;;;;;;;24.13;18.60;;;18.00;92.20;;;18.01;44.48;102304.97;4934947;28;97415;-59
2022/04/29 10:05:08;;;;;;;21.93;18.17;;;18.10;92.10;;;18.05;46.23;102295.88;4931846;28;103284;-61
2022/04/29 10:07:35;;;;;;;22.67;18.10;;;18.10;93.50;;;18.02;44.98;102296.88;4934372;28;100917;-58
2022/04/29 10:10:04;;;;;;;10.80;7.30;;;18.10;92.60;;;18.00;44.67;102304.09;4937107;28;97326;-60
2022/04/29 10:12:33;;;;;;;26.03;18.43;;;18.10;92.00;;;17.94;44.94;102303.44;4932977;28;97262;-59
2022/04/29 10:15:06;;;;;;;25.30;18.47;;;18.00;92.20;;;17.99;44.58;102302.34;4939047;28;98181;-60
2022/04/29 10:23:09;;;;;;;20.40;16.07;;;18.00;92.20;;;17.95;44.92;102305.22;4935465;28;97239;-61
2022/04/29 10:25:44;;;;;;;26.90;18.03;;;18.00;92.50;;;17.93;45.20;102299.91;4943955;28;101495;-60
2022/04/29 10:28:19;;;;;;;21.30;14.40;;;17.90;92.30;;;17.89;44.89;102300.97;4933906;28;97651;-60
2022/04/29 10:30:45;;;;;;;22.10;16.70;;;18.00;92.20;;;17.97;44.92;102304.22;4936804;28;96895;-60